Time;durP1;ratioP1;P1;durP2;ratioP2;P2;SDS_P1;SDS_P2;PMS_P1;PMS_P2;Temp;Humidity;BMP_temperature;BMP_pressure;BME280_temperature;BME280_humidity;BME280_pressure;Samples;Min_cycle;Max_cycle;Signal;HPM_P1;HPM_P2
2021/03/15 00:01:56;;;;;;;7.80;4.05;;;4.30;99.90;;;;;;5077551;28;20264;-86
2021/03/15 00:04:23;;;;;;;8.70;4.65;;;4.40;99.90;;;;;;5096694;28;20201;-83
2021/03/15 00:06:49;;;;;;;4.93;4.28;;;4.50;99.90;;;;;;5094327;28;20208;-84
2021/03/15 00:09:16;;;;;;;6.30;4.05;;;4.60;99.90;;;;;;5096623;28;20205;-86
2021/03/15 00:11:44;;;;;;;5.25;4.03;;;4.80;99.90;;;;;;5098712;28;20193;-87
2021/03/15 00:14:10;;;;;;;7.93;4.97;;;4.60;99.90;;;;;;5098394;28;20184;-90
2021/03/15 00:16:37;;;;;;;4.70;4.07;;;4.50;99.90;;;;;;5090795;28;20229;-89
2021/03/15 00:19:03;;;;;;;5.57;3.65;;;4.80;99.90;;;;;;5090779;28;20194;-86
2021/03/15 00:21:30;;;;;;;4.97;3.15;;;4.50;99.90;;;;;;5084076;28;20222;-86
2021/03/15 00:23:57;;;;;;;3.75;2.95;;;4.50;99.90;;;;;;5058087;28;20240;-84
2021/03/15 00:26:24;;;;;;;8.77;3.90;;;5.10;99.90;;;;;;5076292;28;20236;-89
2021/03/15 00:28:51;;;;;;;7.32;4.32;;;4.40;99.90;;;;;;5076176;28;20272;-89
2021/03/15 00:31:17;;;;;;;5.43;4.60;;;4.40;99.90;;;;;;5074159;28;20252;-87
2021/03/15 00:33:43;;;;;;;7.30;4.18;;;4.30;99.90;;;;;;5073776;28;20248;-88
2021/03/15 00:36:10;;;;;;;4.97;3.78;;;4.30;99.90;;;;;;5074833;28;20721;-88
2021/03/15 00:38:36;;;;;;;9.27;5.05;;;4.30;99.90;;;;;;5074403;28;20292;-87
2021/03/15 00:41:03;;;;;;;7.05;4.00;;;4.20;99.90;;;;;;5074240;28;20383;-83
2021/03/15 00:43:30;;;;;;;4.80;4.35;;;4.20;99.90;;;;;;5073637;28;20277;-87
2021/03/15 00:45:56;;;;;;;5.15;3.72;;;4.10;99.90;;;;;;5075164;28;20288;-88
2021/03/15 00:48:24;;;;;;;7.25;3.95;;;4.10;99.90;;;;;;5078483;28;20202;-87
2021/03/15 00:50:50;;;;;;;6.78;4.60;;;4.20;99.90;;;;;;5086877;28;20199;-86
2021/03/15 00:53:16;;;;;;;6.20;4.65;;;4.30;99.90;;;;;;5091735;28;20236;-87
2021/03/15 00:55:43;;;;;;;4.35;3.53;;;4.40;99.90;;;;;;5096670;28;20299;-87
2021/03/15 00:58:09;;;;;;;6.38;4.07;;;4.40;99.90;;;;;;5094528;28;20186;-84
2021/03/15 01:00:39;;;;;;;11.98;4.50;;;4.40;99.90;;;;;;5082139;28;20236;-82
2021/03/15 01:03:06;;;;;;;6.30;3.65;;;4.30;99.90;;;;;;5094829;28;20201;-86
2021/03/15 01:05:37;;;;;;;7.88;4.90;;;4.30;99.90;;;;;;5096714;28;20201;-87
2021/03/15 01:08:04;;;;;;;6.35;4.55;;;4.30;99.90;;;;;;5097535;28;20181;-86
2021/03/15 01:10:34;;;;;;;5.22;4.70;;;4.30;99.90;;;;;;5097953;28;20194;-88
2021/03/15 01:13:03;;;;;;;10.88;3.60;;;4.30;99.90;;;;;;5096712;28;20207;-88
2021/03/15 01:15:30;;;;;;;6.57;5.13;;;4.40;99.90;;;;;;5094621;28;20207;-87
2021/03/15 01:17:57;;;;;;;6.80;4.72;;;4.40;99.90;;;;;;5084755;28;20210;-83
2021/03/15 01:20:24;;;;;;;7.25;4.57;;;4.40;99.90;;;;;;5091795;28;20208;-87
2021/03/15 01:22:51;;;;;;;6.65;5.40;;;4.40;99.90;;;;;;5095824;28;20291;-88
2021/03/15 01:25:19;;;;;;;6.15;3.70;;;4.40;99.90;;;;;;5098763;28;20208;-90
2021/03/15 01:27:45;;;;;;;5.65;4.05;;;4.40;99.90;;;;;;5095577;28;20201;-88
2021/03/15 01:30:14;;;;;;;5.88;3.88;;;4.40;99.90;;;;;;5095351;28;20216;-89
2021/03/15 01:32:41;;;;;;;5.65;4.10;;;4.40;99.90;;;;;;5097172;28;20200;-87
2021/03/15 01:35:10;;;;;;;4.88;3.97;;;4.40;99.90;;;;;;5093724;28;20209;-85
2021/03/15 01:37:36;;;;;;;11.07;4.57;;;4.40;99.90;;;;;;5091867;28;20202;-87
2021/03/15 01:40:04;;;;;;;9.10;4.70;;;4.30;99.90;;;;;;5097647;28;20201;-89
2021/03/15 01:42:31;;;;;;;5.38;4.30;;;4.30;99.90;;;;;;5095233;28;20291;-88
2021/03/15 01:44:57;;;;;;;7.43;4.65;;;4.30;99.90;;;;;;5095793;28;20201;-89
2021/03/15 01:47:25;;;;;;;7.20;5.03;;;4.30;99.90;;;;;;5097786;28;20210;-90
2021/03/15 01:49:51;;;;;;;4.80;3.72;;;4.30;99.90;;;;;;5099670;28;20202;-87
2021/03/15 01:52:19;;;;;;;4.43;3.50;;;4.30;99.90;;;;;;5098719;28;20213;-85
2021/03/15 01:54:46;;;;;;;4.40;3.70;;;4.30;99.90;;;;;;5094034;28;20237;-88
2021/03/15 01:57:12;;;;;;;5.35;4.55;;;4.40;99.90;;;;;;5082209;28;20272;-88
2021/03/15 01:59:39;;;;;;;7.03;3.15;;;4.40;99.90;;;;;;5079165;28;20201;-89
2021/03/15 02:02:06;;;;;;;5.10;3.50;;;4.30;99.90;;;;;;5077921;28;20243;-86
2021/03/15 02:04:32;;;;;;;6.63;4.10;;;4.30;99.90;;;;;;5079010;28;20724;-89
2021/03/15 02:06:59;;;;;;;3.55;3.25;;;4.30;99.90;;;;;;5075877;28;20720;-89
2021/03/15 02:09:27;;;;;;;5.70;4.03;;;4.20;99.90;;;;;;5076050;28;20212;-88
2021/03/15 02:12:06;;;;;;;8.82;4.05;;;4.20;99.90;;;;;;5077986;28;20237;-86
2021/03/15 02:14:41;;;;;;;5.32;3.67;;;4.10;99.90;;;;;;5078135;28;20275;-89
2021/03/15 02:17:16;;;;;;;6.55;4.10;;;4.10;99.90;;;;;;5076288;28;20247;-88
2021/03/15 02:20:09;;;;;;;4.75;3.38;;;4.10;99.90;;;;;;5077699;28;20232;-88
2021/03/15 02:22:47;;;;;;;3.75;3.25;;;4.10;99.90;;;;;;5078251;28;20275;-88
2021/03/15 02:25:53;;;;;;;6.65;3.35;;;4.00;99.90;;;;;;5077677;28;20255;-87
2021/03/15 02:29:01;;;;;;;8.68;4.53;;;3.90;99.90;;;;;;5077388;28;20296;-88
2021/03/15 02:31:49;;;;;;;3.65;3.22;;;3.80;99.90;;;;;;5075937;28;20437;-86
2021/03/15 02:34:58;;;;;;;5.28;3.05;;;3.70;99.90;;;;;;5069860;28;20216;-88
2021/03/15 02:37:30;;;;;;;4.70;3.65;;;3.60;99.90;;;;;;5077753;28;20248;-88
2021/03/15 02:40:04;;;;;;;4.22;3.25;;;3.60;99.90;;;;;;5077308;28;20201;-89
2021/03/15 02:42:31;;;;;;;5.80;4.07;;;3.70;99.90;;;;;;5074130;28;20237;-88
2021/03/15 02:44:59;;;;;;;4.63;3.00;;;3.70;99.90;;;;;;5075734;28;20206;-88
2021/03/15 02:47:27;;;;;;;7.30;4.07;;;3.80;99.90;;;;;;5073844;28;20205;-83
2021/03/15 02:49:59;;;;;;;11.13;5.60;;;3.80;99.90;;;;;;5073939;28;20574;-86
2021/03/15 02:52:28;;;;;;;4.03;3.63;;;3.80;99.90;;;;;;5074606;28;20233;-84
2021/03/15 02:54:56;;;;;;;6.15;4.43;;;3.80;99.90;;;;;;5075074;28;20238;-88
2021/03/15 02:57:23;;;;;;;6.38;4.25;;;3.70;99.90;;;;;;5074670;28;20607;-87
2021/03/15 02:59:53;;;;;;;5.47;4.35;;;3.70;99.90;;;;;;5073264;28;20672;-88
2021/03/15 03:02:20;;;;;;;5.47;3.63;;;3.60;99.90;;;;;;5073580;28;20677;-88
2021/03/15 03:04:48;;;;;;;8.48;4.93;;;3.60;99.90;;;;;;5074234;28;20288;-83
2021/03/15 03:07:17;;;;;;;8.05;4.72;;;3.50;99.90;;;;;;5074139;28;20708;-85
2021/03/15 03:09:44;;;;;;;4.50;3.95;;;3.50;99.90;;;;;;5074448;28;20577;-87
2021/03/15 03:12:13;;;;;;;4.68;4.18;;;3.40;99.90;;;;;;5074445;28;20292;-86
2021/03/15 03:14:42;;;;;;;6.18;3.50;;;3.40;99.90;;;;;;5074137;28;20240;-89
2021/03/15 03:17:09;;;;;;;4.00;3.53;;;3.30;99.90;;;;;;5073489;28;20214;-86
2021/03/15 03:19:38;;;;;;;7.78;3.88;;;3.20;99.90;;;;;;5072942;28;20580;-89
2021/03/15 03:22:05;;;;;;;4.13;3.20;;;3.20;99.90;;;;;;5074077;28;20716;-89
2021/03/15 03:24:34;;;;;;;7.47;4.90;;;3.20;99.90;;;;;;5073738;28;20237;-86
2021/03/15 03:27:02;;;;;;;7.97;4.10;;;3.30;99.90;;;;;;5074042;28;20285;-85
2021/03/15 03:29:29;;;;;;;5.93;4.22;;;3.10;99.90;;;;;;5052710;28;20575;-86
2021/03/15 03:31:57;;;;;;;9.18;4.47;;;3.10;99.90;;;;;;5070062;28;20206;-85
2021/03/15 03:34:24;;;;;;;8.70;3.40;;;3.10;99.90;;;;;;5072641;28;20201;-87
2021/03/15 03:36:51;;;;;;;6.53;3.67;;;3.00;99.90;;;;;;5073825;28;20667;-87
2021/03/15 03:39:18;;;;;;;5.20;4.70;;;3.10;99.90;;;;;;5074016;28;20237;-90
2021/03/15 03:41:45;;;;;;;6.55;4.15;;;2.90;99.90;;;;;;5074107;28;20287;-84
2021/03/15 03:44:13;;;;;;;12.45;4.45;;;2.90;99.90;;;;;;5073642;28;20197;-83
2021/03/15 03:46:44;;;;;;;4.90;3.40;;;2.90;99.90;;;;;;5073000;28;20293;-83
2021/03/15 03:49:10;;;;;;;7.40;4.32;;;2.90;99.90;;;;;;5071840;28;20567;-90
2021/03/15 03:51:45;;;;;;;4.45;3.72;;;3.00;99.90;;;;;;5074600;28;20665;-91
2021/03/15 03:54:16;;;;;;;7.28;3.80;;;3.10;99.90;;;;;;5075306;28;20208;-90
2021/03/15 03:56:50;;;;;;;5.53;3.40;;;3.10;99.90;;;;;;5075513;28;20245;-91
2021/03/15 03:59:21;;;;;;;6.22;4.13;;;3.20;99.90;;;;;;5075846;28;20205;-84
2021/03/15 04:01:51;;;;;;;4.60;3.95;;;3.30;99.90;;;;;;5069161;28;20294;-84
2021/03/15 04:04:21;;;;;;;6.53;4.10;;;3.30;99.90;;;;;;5072775;28;20651;-87
2021/03/15 04:06:51;;;;;;;6.00;4.13;;;3.40;99.90;;;;;;5075839;28;20206;-88
2021/03/15 04:09:24;;;;;;;4.30;3.28;;;3.40;99.90;;;;;;5076382;28;20204;-89
2021/03/15 04:11:56;;;;;;;8.93;4.35;;;3.50;99.90;;;;;;5078001;28;20202;-90
2021/03/15 04:14:26;;;;;;;7.03;3.75;;;3.40;99.90;;;;;;5076483;28;20236;-90
2021/03/15 04:16:54;;;;;;;6.80;3.20;;;3.50;99.90;;;;;;5059460;28;20233;-89
2021/03/15 04:19:25;;;;;;;6.15;3.88;;;3.60;99.90;;;;;;5090737;28;20268;-87
2021/03/15 04:21:57;;;;;;;5.32;3.90;;;3.60;99.90;;;;;;5095619;28;20231;-85
2021/03/15 04:24:24;;;;;;;6.03;3.40;;;3.70;99.90;;;;;;5088127;28;20209;-86
2021/03/15 04:26:52;;;;;;;10.20;4.35;;;3.70;99.90;;;;;;5094235;28;20200;-88
2021/03/15 04:29:20;;;;;;;4.57;3.25;;;3.70;99.90;;;;;;5098527;28;20185;-89
2021/03/15 04:31:48;;;;;;;5.40;3.25;;;4.00;99.90;;;;;;5098960;28;20222;-90
2021/03/15 04:34:15;;;;;;;6.35;2.92;;;3.70;99.90;;;;;;5097670;28;20190;-89
2021/03/15 04:36:43;;;;;;;4.65;3.13;;;3.80;99.90;;;;;;5084537;28;20237;-83
2021/03/15 04:39:11;;;;;;;4.30;3.08;;;3.80;99.90;;;;;;5076884;28;20292;-88
2021/03/15 04:41:37;;;;;;;5.13;3.67;;;3.80;99.90;;;;;;5074751;28;20362;-90
2021/03/15 04:44:06;;;;;;;4.57;3.28;;;3.80;99.90;;;;;;5074252;28;20637;-91
2021/03/15 04:46:33;;;;;;;5.07;4.05;;;3.80;99.90;;;;;;5074561;28;20239;-92
2021/03/15 04:49:06;;;;;;;6.40;2.47;;;3.80;99.90;;;;;;5073657;28;20233;-93
2021/03/15 04:51:34;;;;;;;2.20;1.80;;;3.80;99.90;;;;;;5075008;28;20212;-90
2021/03/15 04:54:01;;;;;;;2.53;2.30;;;3.80;99.90;;;;;;5073186;28;20238;-81
2021/03/15 04:56:28;;;;;;;4.88;2.55;;;3.80;99.90;;;;;;5074133;28;20763;-87
2021/03/15 04:58:58;;;;;;;2.65;2.45;;;3.80;99.90;;;;;;5077884;28;20292;-89
2021/03/15 05:01:29;;;;;;;3.60;3.22;;;3.70;99.90;;;;;;5078130;28;20264;-87
2021/03/15 05:03:56;;;;;;;4.28;3.15;;;3.80;99.90;;;;;;5076391;28;20684;-90
2021/03/15 05:06:24;;;;;;;6.00;2.80;;;3.80;99.90;;;;;;5077396;28;20287;-90
2021/03/15 05:08:56;;;;;;;5.40;3.15;;;3.80;99.90;;;;;;5077648;28;20673;-91
2021/03/15 05:11:27;;;;;;;2.92;2.40;;;3.80;99.90;;;;;;5078833;28;20240;-82
2021/03/15 05:13:54;;;;;;;4.35;2.90;;;3.80;99.90;;;;;;5077738;28;20202;-88
2021/03/15 05:16:22;;;;;;;2.83;2.30;;;3.80;99.90;;;;;;5077140;28;20636;-87
2021/03/15 05:18:55;;;;;;;4.63;2.65;;;3.90;99.90;;;;;;5073492;28;20204;-85
2021/03/15 05:21:23;;;;;;;4.22;3.03;;;3.90;99.90;;;;;;5078770;28;20271;-91
2021/03/15 05:23:50;;;;;;;5.45;2.45;;;3.90;99.90;;;;;;5080311;28;20230;-91
2021/03/15 05:26:18;;;;;;;3.33;2.60;;;3.90;99.90;;;;;;5081683;28;20237;-92
2021/03/15 05:28:47;;;;;;;3.38;3.08;;;4.00;99.90;;;;;;5077800;28;20205;-90
2021/03/15 05:31:14;;;;;;;3.30;2.67;;;3.90;99.90;;;;;;5077601;28;20594;-88
2021/03/15 05:33:42;;;;;;;5.05;3.17;;;4.00;99.90;;;;;;5074223;28;20292;-87
2021/03/15 05:36:11;;;;;;;6.35;3.75;;;4.00;99.90;;;;;;5077341;28;20201;-90
2021/03/15 05:38:39;;;;;;;4.85;3.03;;;4.00;99.90;;;;;;5078080;28;20194;-90
2021/03/15 05:41:09;;;;;;;5.75;3.45;;;4.00;99.90;;;;;;5078301;28;20276;-91
2021/03/15 05:44:06;;;;;;;11.18;2.72;;;4.00;99.90;;;;;;5078991;28;20212;-88
2021/03/15 05:47:04;;;;;;;3.75;2.80;;;4.00;99.90;;;;;;5076481;28;20236;-86
2021/03/15 05:49:52;;;;;;;4.03;2.20;;;4.00;99.90;;;;;;5074663;28;20209;-88
2021/03/15 05:52:34;;;;;;;2.40;2.20;;;4.50;99.90;;;;;;5059169;28;20293;-86
2021/03/15 05:55:18;;;;;;;2.35;2.15;;;4.00;99.90;;;;;;5075834;28;20229;-87
2021/03/15 05:58:19;;;;;;;5.53;2.95;;;4.00;99.90;;;;;;5076129;28;20264;-88
2021/03/15 06:01:02;;;;;;;5.47;3.22;;;4.00;99.90;;;;;;5076201;28;20242;-86
2021/03/15 06:04:01;;;;;;;4.53;2.85;;;4.00;99.90;;;;;;5075395;28;20245;-87
2021/03/15 06:06:36;;;;;;;2.58;2.38;;;3.90;99.90;;;;;;5075931;28;20206;-84
2021/03/15 06:09:05;;;;;;;2.78;2.50;;;4.00;99.90;;;;;;5076325;28;20292;-87
2021/03/15 06:11:40;;;;;;;6.05;3.05;;;3.90;99.90;;;;;;5076363;28;20241;-85
2021/03/15 06:14:07;;;;;;;6.10;3.15;;;3.90;99.90;;;;;;5076875;28;20235;-90
2021/03/15 06:16:35;;;;;;;2.60;2.40;;;4.00;99.90;;;;;;5076163;28;20319;-90
2021/03/15 06:19:02;;;;;;;4.07;3.38;;;4.10;99.90;;;;;;5076568;28;20675;-92
2021/03/15 06:21:28;;;;;;;4.55;2.70;;;4.00;99.90;;;;;;5077264;28;20217;-90
2021/03/15 06:23:59;;;;;;;6.10;2.58;;;3.90;99.90;;;;;;5077069;28;20198;-88
2021/03/15 06:26:27;;;;;;;3.30;3.00;;;4.00;99.90;;;;;;5076974;28;20205;-89
2021/03/15 06:28:55;;;;;;;4.85;2.95;;;4.00;99.90;;;;;;5078152;28;20216;-89
2021/03/15 06:31:23;;;;;;;4.88;3.45;;;4.10;99.90;;;;;;5074949;28;20658;-88
2021/03/15 06:33:50;;;;;;;8.80;3.20;;;4.10;99.90;;;;;;5074294;28;20676;-88
2021/03/15 06:36:17;;;;;;;10.27;4.90;;;4.10;99.90;;;;;;5075478;28;20571;-87
2021/03/15 06:38:45;;;;;;;8.82;5.25;;;4.10;99.90;;;;;;5076066;28;20637;-89
2021/03/15 06:41:15;;;;;;;10.52;5.07;;;4.10;99.90;;;;;;5076418;28;20198;-88
2021/03/15 06:43:42;;;;;;;12.95;5.78;;;4.10;99.90;;;;;;5075259;28;20205;-87
2021/03/15 06:46:09;;;;;;;5.32;3.50;;;4.10;99.90;;;;;;5075127;28;20201;-88
2021/03/15 06:48:36;;;;;;;6.43;3.20;;;4.10;99.90;;;;;;5073076;28;20198;-87
2021/03/15 06:51:02;;;;;;;6.72;2.92;;;4.20;99.90;;;;;;5075710;28;20296;-86
2021/03/15 06:56:20;;;;;;;5.88;3.53;;;4.50;99.90;;;;;;5074715;28;20233;-86
2021/03/15 06:58:51;;;;;;;6.32;3.33;;;4.50;99.90;;;;;;5074983;28;20657;-86
2021/03/15 07:01:21;;;;;;;2.60;2.35;;;4.60;99.90;;;;;;5075533;28;20244;-87
2021/03/15 07:03:49;;;;;;;3.83;2.70;;;4.70;99.90;;;;;;5074072;28;20206;-86
2021/03/15 07:06:18;;;;;;;3.47;2.30;;;4.90;99.90;;;;;;5073593;28;20197;-87
2021/03/15 07:08:46;;;;;;;2.95;2.75;;;4.80;99.90;;;;;;5074910;28;20703;-85
2021/03/15 07:11:19;;;;;;;4.57;2.88;;;4.90;99.90;;;;;;5075524;28;20209;-86
2021/03/15 07:13:46;;;;;;;5.00;2.58;;;5.00;99.90;;;;;;5075625;28;20640;-87
2021/03/15 07:16:24;;;;;;;3.30;2.20;;;5.00;99.90;;;;;;5074789;28;20572;-88
2021/03/15 07:18:51;;;;;;;9.05;2.38;;;5.00;99.90;;;;;;5072735;28;20316;-84
2021/03/15 07:21:33;;;;;;;3.65;2.53;;;5.00;99.90;;;;;;5074441;28;20288;-90
2021/03/15 07:24:00;;;;;;;3.17;2.05;;;4.90;99.90;;;;;;5076367;28;20714;-85
2021/03/15 07:26:28;;;;;;;2.55;1.92;;;4.80;99.90;;;;;;5078950;28;20292;-85
2021/03/15 07:28:55;;;;;;;8.27;2.08;;;4.80;99.90;;;;;;5093361;28;20197;-86
2021/03/15 07:31:25;;;;;;;2.40;2.00;;;4.90;99.90;;;;;;5097538;28;20189;-88
2021/03/15 07:34:12;;;;;;;3.22;2.65;;;5.00;99.90;;;;;;5094154;28;20205;-86
2021/03/15 07:36:48;;;;;;;4.60;2.20;;;5.10;99.90;;;;;;5079601;28;20198;-86
2021/03/15 07:39:14;;;;;;;2.03;1.83;;;5.20;99.90;;;;;;5075634;28;20186;-86
2021/03/15 07:41:44;;;;;;;1.45;1.35;;;5.10;99.90;;;;;;5074670;28;20267;-87
2021/03/15 07:44:22;;;;;;;3.05;1.00;;;5.20;99.90;;;;;;5075728;28;20737;-86
2021/03/15 07:46:50;;;;;;;2.35;2.08;;;5.20;99.90;;;;;;5075981;28;20201;-92
2021/03/15 07:49:28;;;;;;;2.35;1.73;;;5.10;99.90;;;;;;5074897;28;20655;-90
2021/03/15 07:51:56;;;;;;;1.33;1.23;;;5.00;99.90;;;;;;5074834;28;20663;-91
2021/03/15 07:54:24;;;;;;;2.45;1.42;;;4.90;99.90;;;;;;5075600;28;20231;-87
2021/03/15 07:57:12;;;;;;;2.15;1.10;;;4.80;99.90;;;;;;5076031;28;20302;-90
2021/03/15 07:59:40;;;;;;;1.30;1.20;;;4.80;99.90;;;;;;5074415;28;20232;-87
2021/03/15 08:02:14;;;;;;;0.80;0.80;;;4.60;99.90;;;;;;5074164;28;20667;-89
2021/03/15 08:04:40;;;;;;;1.08;0.90;;;4.60;99.90;;;;;;5066776;28;20266;-83
2021/03/15 08:07:08;;;;;;;1.13;0.82;;;4.60;99.90;;;;;;5074249;28;20275;-87
2021/03/15 08:09:35;;;;;;;2.30;1.30;;;4.40;99.90;;;;;;5075299;28;20230;-88
2021/03/15 08:12:05;;;;;;;2.53;1.90;;;4.50;99.90;;;;;;5074722;28;20225;-89
2021/03/15 08:14:35;;;;;;;5.72;1.38;;;4.60;99.90;;;;;;5075691;28;20205;-86
2021/03/15 08:17:03;;;;;;;1.60;1.50;;;4.50;99.90;;;;;;5074669;28;20205;-87
2021/03/15 08:19:35;;;;;;;1.73;1.60;;;4.60;99.90;;;;;;5072824;28;20201;-89
2021/03/15 08:22:03;;;;;;;1.33;1.23;;;4.70;99.90;;;;;;5076100;28;20225;-88
2021/03/15 08:24:33;;;;;;;2.42;1.20;;;4.70;99.90;;;;;;5074768;28;20241;-88
2021/03/15 08:27:02;;;;;;;3.30;1.27;;;4.60;99.90;;;;;;5073218;28;20209;-77
2021/03/15 08:29:33;;;;;;;1.50;1.38;;;4.70;99.90;;;;;;5073076;28;20296;-76
2021/03/15 08:31:59;;;;;;;1.42;1.33;;;4.80;99.90;;;;;;5072723;28;20212;-80
2021/03/15 08:34:27;;;;;;;0.85;0.85;;;5.00;99.90;;;;;;5078087;28;20248;-88
2021/03/15 08:36:55;;;;;;;2.65;1.55;;;5.00;99.90;;;;;;5076929;28;20205;-84
2021/03/15 08:39:38;;;;;;;1.48;1.05;;;5.00;99.90;;;;;;5090524;28;20204;-87
2021/03/15 08:42:34;;;;;;;0.80;0.80;;;4.90;99.90;;;;;;5092404;28;20233;-87
2021/03/15 08:45:01;;;;;;;1.25;1.15;;;4.80;99.90;;;;;;5074366;28;20688;-85
2021/03/15 08:48:00;;;;;;;3.83;1.45;;;4.70;99.90;;;;;;5076677;28;20494;-89
2021/03/15 08:50:59;;;;;;;1.42;0.90;;;4.70;99.90;;;;;;5059169;28;20205;-85
2021/03/15 08:53:51;;;;;;;1.20;1.02;;;4.70;99.90;;;;;;5074748;28;20818;-89
2021/03/15 08:56:42;;;;;;;3.65;1.63;;;4.80;99.90;;;;;;5073390;28;20771;-88
2021/03/15 08:59:10;;;;;;;1.40;1.30;;;4.70;99.90;;;;;;5054373;28;20359;-86
2021/03/15 09:02:06;;;;;;;1.70;1.60;;;4.90;99.90;;;;;;5056905;28;20264;-89
2021/03/15 09:04:41;;;;;;;2.00;1.35;;;4.90;99.90;;;;;;5035603;28;20654;-91
2021/03/15 09:07:35;;;;;;;8.27;2.72;;;4.70;99.90;;;;;;5054775;28;20281;-88
2021/03/15 09:10:41;;;;;;;1.10;0.90;;;4.90;99.90;;;;;;5035831;28;20263;-81
2021/03/15 09:13:23;;;;;;;4.10;2.45;;;4.90;99.90;;;;;;5055039;28;20228;-85
2021/03/15 09:16:03;;;;;;;2.35;1.65;;;4.80;99.90;;;;;;5056858;28;20202;-90
2021/03/15 09:18:50;;;;;;;1.17;1.10;;;6.50;99.90;;;;;;5059007;28;20301;-89
2021/03/15 09:21:54;;;;;;;1.67;1.52;;;5.10;99.90;;;;;;5073287;28;20244;-91
2021/03/15 09:24:57;;;;;;;3.53;2.17;;;5.00;99.90;;;;;;5076302;28;20233;-89
2021/03/15 09:27:29;;;;;;;1.13;0.95;;;4.90;99.90;;;;;;5073393;28;20205;-87
2021/03/15 09:29:58;;;;;;;1.08;0.82;;;5.00;99.90;;;;;;5073700;28;20266;-85
2021/03/15 09:32:30;;;;;;;0.90;0.90;;;5.20;99.90;;;;;;5072373;28;20237;-89
2021/03/15 09:34:58;;;;;;;0.80;0.80;;;5.30;99.90;;;;;;5072223;28;20657;-89
2021/03/15 09:37:24;;;;;;;0.73;0.73;;;5.40;99.90;;;;;;5074145;28;20202;-89
2021/03/15 09:39:51;;;;;;;1.33;1.23;;;5.40;99.90;;;;;;5074582;28;20205;-89
2021/03/15 09:42:19;;;;;;;0.85;0.60;;;6.20;99.90;;;;;;5073451;28;20229;-91
2021/03/15 09:44:46;;;;;;;1.30;1.20;;;5.20;99.90;;;;;;5075696;28;20206;-91
2021/03/15 09:47:25;;;;;;;1.73;1.63;;;6.70;99.90;;;;;;5076185;28;20247;-90
2021/03/15 09:49:51;;;;;;;1.25;0.82;;;5.20;99.90;;;;;;5076394;28;20547;-86
2021/03/15 09:52:21;;;;;;;0.77;0.77;;;5.00;99.90;;;;;;5079112;28;20203;-87
2021/03/15 09:54:50;;;;;;;1.02;1.00;;;5.10;99.90;;;;;;5076514;28;20211;-86
2021/03/15 09:57:17;;;;;;;1.05;0.95;;;5.10;99.90;;;;;;5075020;28;20662;-90
2021/03/15 09:59:44;;;;;;;3.53;1.25;;;5.30;99.90;;;;;;5077499;28;20237;-80
2021/03/15 10:02:13;;;;;;;1.70;1.02;;;5.40;99.90;;;;;;5075438;28;20335;-82
2021/03/15 10:04:41;;;;;;;1.60;1.35;;;5.40;99.90;;;;;;5074906;28;20210;-82
2021/03/15 10:07:09;;;;;;;1.33;1.02;;;5.60;99.90;;;;;;5075609;28;20346;-77
2021/03/15 10:09:39;;;;;;;1.35;1.25;;;5.70;99.90;;;;;;5075175;28;20206;-86
2021/03/15 10:12:19;;;;;;;2.95;1.73;;;5.90;99.90;;;;;;5075817;28;20224;-88
2021/03/15 10:14:46;;;;;;;1.58;1.42;;;6.00;99.90;;;;;;5075945;28;20329;-90
2021/03/15 10:17:20;;;;;;;2.88;1.63;;;5.80;99.90;;;;;;5075996;28;20205;-89
2021/03/15 10:19:48;;;;;;;5.63;2.28;;;5.70;99.90;;;;;;5075056;28;20287;-87
2021/03/15 10:22:16;;;;;;;2.63;2.10;;;5.70;99.90;;;;;;5076112;28;20229;-88
2021/03/15 10:24:45;;;;;;;1.70;1.60;;;5.80;99.90;;;;;;5076586;28;20236;-87
2021/03/15 10:27:18;;;;;;;1.80;1.52;;;5.70;99.90;;;;;;5077125;28;20205;-90
2021/03/15 10:29:53;;;;;;;3.28;1.80;;;5.60;99.90;;;;;;5093005;28;20292;-84
2021/03/15 10:32:25;;;;;;;2.03;1.80;;;5.80;99.90;;;;;;5091032;28;20205;-84
2021/03/15 10:34:54;;;;;;;2.85;1.88;;;5.80;99.90;;;;;;5092768;28;20216;-84
2021/03/15 10:37:24;;;;;;;2.00;1.73;;;5.70;99.90;;;;;;5096904;28;20202;-89
2021/03/15 10:39:52;;;;;;;2.15;2.05;;;5.70;99.90;;;;;;5098354;28;20193;-89
2021/03/15 10:42:21;;;;;;;3.55;2.65;;;5.80;99.90;;;;;;5096516;28;20213;-87
2021/03/15 10:44:47;;;;;;;2.03;1.70;;;5.80;99.90;;;;;;5094785;28;20211;-84
2021/03/15 10:47:15;;;;;;;3.55;2.65;;;5.90;99.90;;;;;;5096186;28;20201;-88
2021/03/15 10:49:43;;;;;;;1.88;1.30;;;5.80;99.90;;;;;;5094709;28;20191;-82
2021/03/15 10:52:26;;;;;;;1.83;1.73;;;5.80;99.90;;;;;;5092108;28;20214;-89
2021/03/15 10:54:52;;;;;;;1.10;0.75;;;5.80;99.90;;;;;;5094665;28;20254;-85
2021/03/15 10:57:21;;;;;;;1.73;1.30;;;5.60;99.90;;;;;;5097565;28;20224;-91
2021/03/15 10:59:49;;;;;;;2.78;2.00;;;5.60;99.90;;;;;;5095890;28;20206;-85
2021/03/15 11:02:26;;;;;;;1.88;1.65;;;5.50;99.90;;;;;;5094446;28;20237;-87
2021/03/15 11:04:56;;;;;;;2.22;2.05;;;4.50;99.90;;;;;;5085182;28;20247;-88
2021/03/15 11:07:28;;;;;;;1.63;1.30;;;5.60;99.90;;;;;;5081132;28;20266;-85
2021/03/15 11:10:03;;;;;;;2.45;2.25;;;5.60;99.90;;;;;;5083363;28;20213;-85
2021/03/15 11:12:36;;;;;;;1.40;1.25;;;5.60;99.90;;;;;;5090083;28;20189;-84
2021/03/15 11:15:21;;;;;;;3.75;3.10;;;5.60;99.90;;;;;;5076714;28;20295;-89
2021/03/15 11:18:10;;;;;;;3.47;2.80;;;5.80;99.90;;;;;;5076813;28;20663;-90
2021/03/15 11:20:43;;;;;;;2.20;1.20;;;5.80;99.90;;;;;;5056473;28;20642;-88
2021/03/15 11:23:11;;;;;;;3.95;3.15;;;5.80;99.90;;;;;;5054713;28;20320;-89
2021/03/15 11:25:38;;;;;;;3.05;2.00;;;5.80;99.90;;;;;;5054029;28;20297;-85
2021/03/15 11:28:11;;;;;;;2.13;1.92;;;5.80;99.90;;;;;;5075113;28;20266;-84
2021/03/15 11:30:38;;;;;;;3.05;2.75;;;7.10;99.90;;;;;;5097399;28;20212;-88
2021/03/15 11:33:07;;;;;;;2.38;1.88;;;5.80;99.90;;;;;;5095746;28;20186;-87
2021/03/15 11:35:36;;;;;;;3.17;2.22;;;5.90;99.90;;;;;;5096076;28;20263;-86
2021/03/15 11:38:03;;;;;;;3.22;2.92;;;6.00;99.90;;;;;;5098208;28;20200;-89
2021/03/15 11:40:34;;;;;;;2.70;2.50;;;6.10;99.90;;;;;;5096939;28;20182;-86
2021/03/15 11:43:01;;;;;;;3.53;3.03;;;6.10;99.90;;;;;;5094220;28;20240;-88
2021/03/15 11:45:28;;;;;;;32.25;11.38;;;6.20;99.90;;;;;;5096311;28;20185;-86
2021/03/15 11:47:55;;;;;;;2.00;1.80;;;6.20;99.90;;;;;;5093296;28;20263;-81
2021/03/15 11:50:23;;;;;;;2.33;2.10;;;6.20;99.90;;;;;;5083236;28;20657;-83
2021/03/15 11:52:50;;;;;;;3.28;2.70;;;6.30;99.90;;;;;;5080752;28;20276;-81
2021/03/15 11:55:16;;;;;;;2.25;2.05;;;6.40;99.90;;;;;;5075693;28;20290;-83
2021/03/15 11:57:44;;;;;;;2.13;2.00;;;6.50;99.90;;;;;;5073753;28;20635;-84
2021/03/15 12:00:12;;;;;;;2.85;2.65;;;6.60;99.90;;;;;;5076061;28;20240;-87
2021/03/15 12:02:39;;;;;;;1.95;1.23;;;6.50;99.90;;;;;;5074943;28;20368;-85
2021/03/15 12:05:07;;;;;;;6.22;2.55;;;6.30;99.90;;;;;;5075637;28;20681;-80
2021/03/15 12:07:34;;;;;;;2.00;1.77;;;6.30;99.90;;;;;;5074625;28;20297;-86
2021/03/15 12:10:01;;;;;;;2.40;2.30;;;6.30;99.90;;;;;;5075292;28;20289;-82
2021/03/15 12:12:27;;;;;;;2.13;1.92;;;6.50;99.90;;;;;;5074322;28;20681;-84
2021/03/15 12:14:57;;;;;;;2.20;2.00;;;6.80;99.90;;;;;;5074658;28;20237;-85
2021/03/15 12:17:24;;;;;;;2.40;2.20;;;7.00;99.90;;;;;;5056044;28;20205;-90
2021/03/15 12:19:50;;;;;;;2.30;2.10;;;7.30;99.90;;;;;;5076180;28;20225;-88
2021/03/15 12:22:17;;;;;;;2.08;1.88;;;8.50;99.90;;;;;;5074952;28;20692;-88
2021/03/15 12:24:43;;;;;;;1.50;1.40;;;8.10;99.90;;;;;;5075253;28;20643;-83
2021/03/15 12:27:10;;;;;;;1.30;1.20;;;8.60;99.90;;;;;;5076165;28;20632;-83
2021/03/15 12:29:37;;;;;;;1.23;1.13;;;8.30;99.90;;;;;;5075108;28;20201;-82
2021/03/15 12:32:05;;;;;;;1.30;1.17;;;8.30;99.90;;;;;;5074203;28;20467;-87
2021/03/15 12:34:32;;;;;;;2.00;1.10;;;8.60;99.90;;;;;;5081511;28;20521;-82
2021/03/15 12:36:58;;;;;;;1.23;0.80;;;8.60;99.90;;;;;;5085559;28;20475;-83
2021/03/15 12:39:25;;;;;;;1.40;0.80;;;8.60;99.90;;;;;;5078397;28;20534;-84
2021/03/15 12:41:51;;;;;;;1.42;1.33;;;8.10;99.90;;;;;;5084588;28;20452;-83
2021/03/15 12:44:21;;;;;;;1.23;1.10;;;7.90;99.90;;;;;;5085428;28;20213;-80
2021/03/15 12:46:47;;;;;;;0.85;0.85;;;8.30;99.90;;;;;;5086875;28;20455;-81
2021/03/15 12:49:54;;;;;;;0.90;0.85;;;7.60;99.90;;;;;;5079864;28;20233;-84
2021/03/15 12:52:27;;;;;;;1.23;1.17;;;7.60;99.90;;;;;;5082360;28;20201;-84
2021/03/15 12:54:56;;;;;;;1.13;1.02;;;7.70;99.90;;;;;;5087434;28;20206;-87
2021/03/15 12:57:23;;;;;;;1.55;1.45;;;7.60;99.90;;;;;;5094746;28;20263;-85
2021/03/15 12:59:51;;;;;;;1.92;1.83;;;7.70;99.90;;;;;;5095707;28;20210;-82
2021/03/15 13:02:17;;;;;;;1.92;1.70;;;7.90;99.90;;;;;;5084531;28;20233;-86
2021/03/15 13:04:44;;;;;;;1.50;1.40;;;8.40;99.90;;;;;;5074748;28;20628;-85
2021/03/15 13:07:10;;;;;;;1.67;1.57;;;8.70;99.90;;;;;;5086117;28;20255;-85
2021/03/15 13:09:38;;;;;;;1.33;1.23;;;8.20;99.90;;;;;;5081279;28;20487;-80
2021/03/15 13:12:05;;;;;;;1.00;0.90;;;8.00;99.90;;;;;;5073533;28;20488;-84
2021/03/15 13:14:32;;;;;;;1.00;0.90;;;7.70;99.90;;;;;;5072191;28;20237;-86
2021/03/15 13:16:58;;;;;;;1.42;1.10;;;7.50;99.90;;;;;;5073379;28;20288;-85
2021/03/15 13:19:25;;;;;;;1.17;1.00;;;7.20;99.90;;;;;;5057181;28;20218;-82
2021/03/15 13:21:51;;;;;;;1.02;0.98;;;7.10;99.90;;;;;;5077079;28;20634;-88